createdAt,value
2018-07-19T00:00:39.578Z,22.35
2018-07-19T00:03:08.117Z,18.50
2018-07-19T00:05:36.646Z,21.57
2018-07-19T00:08:06.198Z,16.10
2018-07-19T00:10:41.017Z,16.97
2018-07-19T00:13:09.545Z,15.05
2018-07-19T00:21:24.456Z,16.32
2018-07-19T00:23:53.561Z,16.47
2018-07-19T00:26:22.054Z,16.63
2018-07-19T00:28:50.589Z,21.57
2018-07-19T00:31:19.637Z,19.93
2018-07-19T00:33:48.333Z,17.03
2018-07-19T00:36:18.695Z,19.68
2018-07-19T00:38:47.221Z,19.03
2018-07-19T00:41:17.445Z,19.73
2018-07-19T00:43:45.969Z,17.37
2018-07-19T00:46:15.889Z,20.50
2018-07-19T00:48:44.388Z,21.02
2018-07-19T00:51:12.866Z,19.33
2018-07-19T00:53:41.401Z,21.47
2018-07-19T00:56:09.925Z,16.70
2018-07-19T01:07:17.449Z,18.37
2018-07-19T01:09:45.969Z,17.10
2018-07-19T01:21:00.675Z,19.77
2018-07-19T01:23:29.155Z,22.73
2018-07-19T01:25:57.644Z,18.17
2018-07-19T01:28:26.170Z,18.53
2018-07-19T01:30:54.685Z,29.48
2018-07-19T01:33:23.173Z,19.30
2018-07-19T01:35:51.701Z,16.85
2018-07-19T01:38:20.197Z,17.83
2018-07-19T01:40:48.704Z,29.63
2018-07-19T01:43:17.910Z,17.20
2018-07-19T01:45:46.429Z,18.30
2018-07-19T01:48:16.457Z,16.40
2018-07-19T01:50:45.001Z,23.47
2018-07-19T01:53:13.521Z,16.82
2018-07-19T01:55:42.032Z,20.80
2018-07-19T01:58:10.598Z,18.27
2018-07-19T02:00:39.926Z,21.00
2018-07-19T02:03:08.463Z,18.33
2018-07-19T02:05:37.421Z,21.57
2018-07-19T02:08:05.954Z,21.00
2018-07-19T02:10:34.498Z,18.50
2018-07-19T02:13:03.044Z,18.10
2018-07-19T02:15:31.565Z,19.60
2018-07-19T02:18:00.102Z,20.43
2018-07-19T02:20:28.642Z,19.13
2018-07-19T02:22:57.629Z,20.03
2018-07-19T02:25:26.157Z,25.87
2018-07-19T02:27:55.378Z,24.00
2018-07-19T02:30:23.866Z,19.87
2018-07-19T02:32:52.518Z,19.33
2018-07-19T02:35:21.089Z,23.60
2018-07-19T02:37:49.638Z,20.37
2018-07-19T02:40:19.406Z,18.40
2018-07-19T02:42:47.928Z,19.80
2018-07-19T02:45:16.541Z,23.98
2018-07-19T02:47:45.069Z,21.30
2018-07-19T02:50:13.951Z,19.27
2018-07-19T02:52:42.441Z,21.97
2018-07-19T02:55:10.961Z,22.53
2018-07-19T02:57:39.474Z,20.25
2018-07-19T03:00:08.033Z,20.63
2018-07-19T03:02:37.582Z,21.53
2018-07-19T03:05:06.157Z,21.70
2018-07-19T03:07:34.676Z,19.53
2018-07-19T03:10:03.246Z,21.07
2018-07-19T03:12:31.813Z,22.55
2018-07-19T03:15:00.306Z,20.37
2018-07-19T03:17:28.798Z,23.90
2018-07-19T03:19:57.330Z,20.70
2018-07-19T03:22:25.802Z,20.73
2018-07-19T03:24:54.293Z,19.57
2018-07-19T03:27:22.806Z,20.72
2018-07-19T03:29:51.283Z,25.10
2018-07-19T03:32:19.785Z,21.70
2018-07-19T03:34:48.882Z,20.57
2018-07-19T03:37:17.397Z,19.33
2018-07-19T03:39:46.091Z,25.80
2018-07-19T04:04:27.513Z,20.87
2018-07-19T04:06:56.050Z,25.03
2018-07-19T04:09:24.578Z,21.10
2018-07-19T04:11:53.094Z,19.97
2018-07-19T04:14:21.638Z,23.40
2018-07-19T04:16:50.158Z,19.73
2018-07-19T04:19:18.662Z,20.10
2018-07-19T04:21:47.630Z,21.83
2018-07-19T04:24:16.450Z,20.45
2018-07-19T04:26:45.162Z,20.50
2018-07-19T04:29:15.193Z,19.87
2018-07-19T04:31:43.688Z,21.87
2018-07-19T04:34:12.222Z,23.13
2018-07-19T04:36:40.757Z,25.27
2018-07-19T04:39:09.825Z,30.30
2018-07-19T04:41:38.350Z,22.30
2018-07-19T04:44:07.381Z,19.17
2018-07-19T04:46:36.016Z,24.12
2018-07-19T04:49:05.477Z,23.00
2018-07-19T04:51:34.046Z,35.58
2018-07-19T04:54:02.645Z,26.83
2018-07-19T04:56:31.313Z,24.80
2018-07-19T04:58:59.855Z,24.90
2018-07-19T05:01:28.400Z,20.60
2018-07-19T05:03:57.198Z,24.77
2018-07-19T05:06:26.794Z,20.55
2018-07-19T05:08:55.785Z,22.85
2018-07-19T05:11:24.321Z,20.40
2018-07-19T05:13:52.609Z,25.43
2018-07-19T05:16:21.146Z,20.33
2018-07-19T05:18:49.682Z,25.40
2018-07-19T05:21:18.254Z,20.30
2018-07-19T05:23:46.453Z,19.90
2018-07-19T05:45:07.305Z,17.90
2018-07-19T05:47:35.824Z,16.20
2018-07-19T05:50:04.655Z,22.03
2018-07-19T05:52:33.353Z,15.27
2018-07-19T05:55:02.119Z,23.23
2018-07-19T05:57:30.585Z,12.58
2018-07-19T05:59:59.111Z,11.47
2018-07-19T06:02:27.945Z,13.38
2018-07-19T06:04:56.436Z,14.40
2018-07-19T06:07:25.462Z,11.63
2018-07-19T06:09:53.985Z,10.27
2018-07-19T06:12:22.529Z,10.23
2018-07-19T06:14:51.089Z,13.00
2018-07-19T06:17:19.609Z,9.83
2018-07-19T06:19:48.133Z,13.47
2018-07-19T06:22:17.466Z,9.10
2018-07-19T06:24:47.135Z,9.73
2018-07-19T06:27:17.386Z,8.13
2018-07-19T06:29:45.902Z,8.33
2018-07-19T06:32:15.497Z,8.05
2018-07-19T06:34:44.017Z,14.53
2018-07-19T06:37:12.531Z,8.30
2018-07-19T06:39:41.089Z,9.53
2018-07-19T06:42:09.625Z,7.70
2018-07-19T06:50:23.273Z,7.65
2018-07-19T06:52:51.774Z,6.93
2018-07-19T06:55:20.348Z,6.37
2018-07-19T06:57:48.926Z,14.07
2018-07-19T07:00:17.128Z,6.40
2018-07-19T07:02:45.709Z,7.80
2018-07-19T07:23:37.220Z,12.05
2018-07-19T07:26:06.078Z,5.07
2018-07-19T07:28:34.657Z,5.83
2018-07-19T07:31:05.135Z,4.90
2018-07-19T07:33:33.642Z,9.88
2018-07-19T07:36:02.198Z,5.53
2018-07-19T07:38:30.769Z,7.83
2018-07-19T07:40:59.431Z,10.63
2018-07-19T07:43:27.946Z,6.55
2018-07-19T07:45:56.961Z,9.80
2018-07-19T07:48:25.474Z,5.67
2018-07-19T07:50:56.786Z,5.07
2018-07-19T07:53:25.425Z,4.50
2018-07-19T07:55:53.977Z,4.60
2018-07-19T07:58:22.685Z,3.83
2018-07-19T08:00:51.628Z,10.40
2018-07-19T08:03:21.818Z,11.23
2018-07-19T08:05:50.312Z,53.10
2018-07-19T08:08:19.339Z,4.70
2018-07-19T08:10:47.660Z,6.60
2018-07-19T08:13:16.621Z,10.20
2018-07-19T08:15:45.493Z,9.47
2018-07-19T08:18:15.554Z,10.18
2018-07-19T08:20:43.720Z,7.53
2018-07-19T08:23:12.293Z,4.23
2018-07-19T08:25:41.181Z,4.27
2018-07-19T08:28:09.797Z,5.13
2018-07-19T08:36:21.909Z,5.27
2018-07-19T08:38:51.145Z,3.73
2018-07-19T08:41:21.002Z,4.60
2018-07-19T08:43:50.032Z,3.70
2018-07-19T08:46:19.750Z,4.03
2018-07-19T08:48:48.737Z,3.73
2018-07-19T08:51:17.262Z,4.33
2018-07-19T08:53:47.137Z,3.67
2018-07-19T08:56:26.465Z,4.80
2018-07-19T08:58:56.646Z,3.27
2018-07-19T09:01:26.996Z,10.23
2018-07-19T09:03:56.728Z,5.60
2018-07-19T09:06:26.450Z,4.03
2018-07-19T09:09:07.663Z,10.33
2018-07-19T09:11:36.296Z,3.93
2018-07-19T09:14:06.386Z,3.60
2018-07-19T09:25:22.978Z,3.12
2018-07-19T09:27:54.811Z,3.70
2018-07-19T09:30:24.022Z,4.22
2018-07-19T09:32:53.723Z,3.20
2018-07-19T09:35:22.345Z,3.17
2018-07-19T09:37:52.480Z,7.63
2018-07-19T09:40:25.137Z,7.68
2018-07-19T09:43:01.521Z,4.00
2018-07-19T09:45:37.134Z,3.70
2018-07-19T09:50:49.165Z,3.53
2018-07-19T09:53:21.335Z,6.63
2018-07-19T09:55:54.848Z,3.67
2018-07-19T09:58:23.429Z,5.62
2018-07-19T10:00:57.433Z,10.17
2018-07-19T10:03:26.019Z,4.87
2018-07-19T10:05:54.543Z,9.53
2018-07-19T10:08:23.114Z,9.97
2018-07-19T10:10:51.669Z,12.80
2018-07-19T10:13:21.174Z,4.20
2018-07-19T10:15:50.295Z,13.27
2018-07-19T10:18:18.594Z,7.53
2018-07-19T10:20:47.111Z,8.23
2018-07-19T10:23:17.442Z,7.97
2018-07-19T10:25:46.021Z,3.73
2018-07-19T10:48:21.057Z,4.80
2018-07-19T10:50:49.682Z,12.63
2018-07-19T10:53:18.553Z,11.77
2018-07-19T10:55:47.065Z,3.90
2018-07-19T10:58:16.526Z,13.50
2018-07-19T11:00:45.042Z,4.70
2018-07-19T11:03:13.604Z,4.72
2018-07-19T11:05:42.926Z,5.77
2018-07-19T11:08:11.444Z,5.15
2018-07-19T11:10:40.017Z,6.23
2018-07-19T11:13:08.577Z,4.25
2018-07-19T11:15:37.101Z,4.43
2018-07-19T11:18:05.722Z,10.30
2018-07-19T11:20:35.253Z,11.68
2018-07-19T11:23:03.762Z,7.03
2018-07-19T11:25:32.252Z,5.20
2018-07-19T11:28:01.143Z,6.03
2018-07-19T11:30:30.547Z,6.62
2018-07-19T11:32:59.135Z,10.50
2018-07-19T11:35:27.715Z,10.47
2018-07-19T11:37:56.246Z,6.90
2018-07-19T11:40:25.367Z,4.57
2018-07-19T11:42:53.895Z,6.80
2018-07-19T11:45:22.384Z,5.40
2018-07-19T11:47:50.962Z,5.03
2018-07-19T11:50:19.244Z,20.33
2018-07-19T11:52:47.770Z,5.50
2018-07-19T11:55:16.773Z,54.40
2018-07-19T11:57:45.282Z,5.13
2018-07-19T12:00:14.368Z,8.10
2018-07-19T12:02:43.693Z,6.70
2018-07-19T12:05:12.307Z,5.63
2018-07-19T12:07:40.794Z,13.77
2018-07-19T12:10:09.318Z,9.13
2018-07-19T12:12:38.150Z,4.23
2018-07-19T12:15:06.743Z,7.07
2018-07-19T12:17:35.292Z,5.73
2018-07-19T12:20:03.522Z,13.43
2018-07-19T12:22:32.516Z,4.50
2018-07-19T12:25:00.977Z,4.73
2018-07-19T12:27:29.524Z,4.65
2018-07-19T12:30:00.912Z,5.80
2018-07-19T12:32:29.458Z,8.47
2018-07-19T12:34:58.358Z,4.07
2018-07-19T12:37:26.854Z,6.03
2018-07-19T12:39:55.334Z,4.53
2018-07-19T12:42:23.826Z,9.03
2018-07-19T12:44:52.357Z,10.70
2018-07-19T12:47:20.843Z,4.28
2018-07-19T12:49:49.495Z,8.70
2018-07-19T12:52:17.974Z,9.70
2018-07-19T12:54:46.485Z,4.77
2018-07-19T13:07:07.390Z,5.22
2018-07-19T13:09:35.917Z,4.00
2018-07-19T13:12:04.805Z,6.40
2018-07-19T13:14:33.450Z,5.70
2018-07-19T13:17:02.033Z,7.20
2018-07-19T13:19:31.338Z,4.75
2018-07-19T13:22:01.367Z,4.70
2018-07-19T13:24:30.216Z,11.70
2018-07-19T13:26:58.803Z,7.07
2018-07-19T13:29:28.029Z,4.40
2018-07-19T13:31:56.561Z,5.07
2018-07-19T13:34:25.258Z,12.83
2018-07-19T13:36:54.045Z,5.47
2018-07-19T13:39:22.565Z,10.60
2018-07-19T13:41:51.174Z,5.43
2018-07-19T13:44:20.594Z,5.53
2018-07-19T13:46:49.168Z,7.37
2018-07-19T13:49:18.483Z,13.28
2018-07-19T13:51:47.553Z,4.77
2018-07-19T13:54:28.598Z,7.58
2018-07-19T13:56:57.574Z,4.73
2018-07-19T13:59:26.034Z,4.45
2018-07-19T14:01:59.571Z,10.70
2018-07-19T14:04:28.098Z,4.67
2018-07-19T14:06:56.609Z,7.23
2018-07-19T14:09:25.289Z,10.88
2018-07-19T14:11:53.533Z,4.67
2018-07-19T14:14:22.066Z,5.87
2018-07-19T14:16:51.442Z,4.53
2018-07-19T14:19:20.164Z,9.00
2018-07-19T14:21:48.769Z,8.90
2018-07-19T14:24:17.554Z,4.63
2018-07-19T14:26:46.702Z,4.00
2018-07-19T14:50:09.339Z,8.63
2018-07-19T14:52:43.880Z,14.00
2018-07-19T14:55:12.637Z,3.80
2018-07-19T14:57:41.147Z,11.77
2018-07-19T15:00:10.109Z,9.33
2018-07-19T15:02:38.666Z,16.67
2018-07-19T15:05:07.210Z,7.60
2018-07-19T15:07:36.563Z,5.57
2018-07-19T15:10:06.022Z,7.87
2018-07-19T15:12:34.590Z,24.92
2018-07-19T15:15:03.145Z,5.37
2018-07-19T15:17:31.682Z,9.47
2018-07-19T15:19:59.904Z,7.77
2018-07-19T15:22:28.525Z,6.67
2018-07-19T15:24:57.056Z,4.90
2018-07-19T15:27:26.585Z,6.35
2018-07-19T15:29:55.303Z,5.33
2018-07-19T15:32:23.529Z,8.30
2018-07-19T15:34:52.059Z,4.20
2018-07-19T15:37:20.597Z,6.35
2018-07-19T15:39:49.261Z,7.30
2018-07-19T15:42:18.515Z,7.10
2018-07-19T15:44:47.104Z,4.17
2018-07-19T15:47:17.407Z,6.70
2018-07-19T15:49:45.967Z,5.87
2018-07-19T15:52:15.940Z,4.30
2018-07-19T15:54:44.115Z,9.03
2018-07-19T15:57:12.687Z,8.90
2018-07-19T15:59:41.899Z,4.80
2018-07-19T16:02:10.988Z,5.63
2018-07-19T16:04:40.014Z,4.62
2018-07-19T16:07:08.727Z,4.10
2018-07-19T16:09:37.748Z,6.50
2018-07-19T16:12:07.401Z,5.70
2018-07-19T16:14:36.560Z,4.20
2018-07-19T16:17:05.831Z,5.27
2018-07-19T16:19:34.379Z,4.75
2018-07-19T16:22:03.087Z,6.23
2018-07-19T16:24:32.894Z,7.20
2018-07-19T16:27:02.209Z,15.77
2018-07-19T16:29:31.281Z,4.73
2018-07-19T16:31:59.766Z,5.17
2018-07-19T16:34:28.328Z,4.70
2018-07-19T16:36:57.522Z,18.97
2018-07-19T16:39:26.067Z,4.90
2018-07-19T16:41:54.638Z,4.77
2018-07-19T16:44:23.242Z,15.60
2018-07-19T16:46:51.855Z,6.60
2018-07-19T16:49:20.418Z,4.50
2018-07-19T16:51:48.946Z,7.00
2018-07-19T16:54:17.478Z,9.10
2018-07-19T16:56:46.478Z,4.50
2018-07-19T17:09:08.563Z,8.93
2018-07-19T17:11:37.074Z,14.63
2018-07-19T17:14:05.818Z,8.80
2018-07-19T17:16:34.593Z,7.47
2018-07-19T17:19:03.684Z,4.17
2018-07-19T17:21:32.403Z,4.08
2018-07-19T17:24:01.094Z,6.50
2018-07-19T17:26:29.634Z,7.80
2018-07-19T17:28:58.804Z,11.63
2018-07-19T17:31:28.129Z,10.83
2018-07-19T17:33:56.764Z,7.80
2018-07-19T17:36:26.827Z,14.83
2018-07-19T17:38:55.470Z,20.53
2018-07-19T17:41:24.142Z,6.17
2018-07-19T17:43:52.643Z,5.57
2018-07-19T17:46:21.350Z,4.87
2018-07-19T17:48:51.218Z,6.03
2018-07-19T17:51:20.680Z,5.15
2018-07-19T17:53:49.681Z,5.30
2018-07-19T17:56:18.400Z,5.70
2018-07-19T17:58:47.842Z,5.63
2018-07-19T18:01:17.905Z,6.47
2018-07-19T18:03:47.375Z,6.35
2018-07-19T18:06:16.635Z,5.47
2018-07-19T18:08:45.238Z,11.93
2018-07-19T18:11:14.720Z,12.63
2018-07-19T18:13:42.901Z,16.10
2018-07-19T18:16:11.933Z,10.00
2018-07-19T18:18:41.991Z,9.17
2018-07-19T18:21:10.529Z,8.10
2018-07-19T18:23:39.092Z,4.80
2018-07-19T18:26:07.797Z,7.90
2018-07-19T18:28:36.369Z,7.27
2018-07-19T18:31:04.934Z,5.20
2018-07-19T18:33:34.196Z,7.37
2018-07-19T18:36:03.008Z,8.87
2018-07-19T18:38:31.916Z,14.17
2018-07-19T18:41:03.443Z,16.20
2018-07-19T18:43:31.955Z,6.50
2018-07-19T18:46:00.558Z,6.30
2018-07-19T18:48:29.069Z,11.90
2018-07-19T18:50:57.594Z,7.67
2018-07-19T18:53:26.101Z,18.40
2018-07-19T18:55:55.225Z,7.27
2018-07-19T18:58:23.741Z,12.63
2018-07-19T19:00:52.935Z,13.50
2018-07-19T19:03:21.430Z,10.43
2018-07-19T19:05:49.989Z,9.83
2018-07-19T19:08:18.293Z,8.13
2018-07-19T19:10:46.771Z,8.77
2018-07-19T19:13:16.473Z,9.93
2018-07-19T19:15:45.078Z,8.80
2018-07-19T19:18:13.690Z,10.33
2018-07-19T19:20:42.378Z,8.17
2018-07-19T19:23:11.358Z,13.20
2018-07-19T19:25:39.990Z,16.13
2018-07-19T19:28:08.600Z,17.73
2018-07-19T19:30:37.157Z,12.40
2018-07-19T19:33:05.461Z,16.53
2018-07-19T19:35:34.342Z,10.03
2018-07-19T19:38:02.899Z,9.03
2018-07-19T19:40:31.442Z,10.87
2018-07-19T19:42:59.952Z,10.00
2018-07-19T19:45:28.885Z,10.30
2018-07-19T19:47:58.128Z,9.73
2018-07-19T19:50:26.672Z,8.90
2018-07-19T19:52:55.458Z,8.63
2018-07-19T19:55:24.002Z,13.30
2018-07-19T19:57:52.643Z,13.55
2018-07-19T20:00:21.222Z,14.35
2018-07-19T20:02:49.779Z,9.30
2018-07-19T20:05:18.483Z,9.90
2018-07-19T20:07:47.072Z,10.33
2018-07-19T20:10:17.430Z,15.53
2018-07-19T20:12:45.934Z,10.93
2018-07-19T20:27:41.654Z,14.60
2018-07-19T20:30:10.285Z,18.57
2018-07-19T20:32:39.245Z,19.07
2018-07-19T20:35:07.790Z,24.23
2018-07-19T20:37:37.049Z,9.60
2018-07-19T20:40:05.622Z,17.13
2018-07-19T20:42:34.148Z,16.42
2018-07-19T20:45:02.798Z,9.37
2018-07-19T20:47:32.255Z,11.73
2018-07-19T20:50:00.834Z,10.13
2018-07-19T20:52:29.426Z,13.50
2018-07-19T20:54:58.158Z,14.33
2018-07-19T20:57:26.663Z,9.00
2018-07-19T20:59:55.379Z,10.83
2018-07-19T21:02:24.157Z,8.97
2018-07-19T21:04:52.736Z,17.47
2018-07-19T21:07:21.914Z,15.75
2018-07-19T21:09:50.721Z,16.52
2018-07-19T21:12:19.679Z,12.53
2018-07-19T21:14:48.309Z,8.97
2018-07-19T21:17:17.677Z,8.30
2018-07-19T21:19:46.838Z,13.73
2018-07-19T21:22:16.726Z,8.40
2018-07-19T21:24:45.518Z,16.63
2018-07-19T21:27:15.690Z,10.80
2018-07-19T21:29:44.416Z,8.90
2018-07-19T21:32:13.068Z,17.27
2018-07-19T21:34:41.574Z,8.43
2018-07-19T21:37:10.269Z,8.93
2018-07-19T21:39:39.142Z,9.00
2018-07-19T21:42:07.353Z,10.47
2018-07-19T21:44:35.885Z,10.67
2018-07-19T21:47:04.424Z,14.17
2018-07-19T21:49:32.927Z,15.87
2018-07-19T21:52:01.570Z,13.57
2018-07-19T21:54:30.075Z,12.30
2018-07-19T21:56:58.610Z,18.77
2018-07-19T21:59:27.131Z,14.23
2018-07-19T22:01:55.842Z,11.50
2018-07-19T22:04:24.354Z,15.60
2018-07-19T22:06:52.925Z,13.73
2018-07-19T22:09:22.456Z,11.44
2018-07-19T22:11:51.786Z,15.27
2018-07-19T22:14:20.494Z,24.20
2018-07-19T22:16:49.014Z,11.87
2018-07-19T22:19:17.281Z,19.50
2018-07-19T22:21:45.855Z,11.53
2018-07-19T22:24:15.632Z,22.00
2018-07-19T22:26:44.220Z,19.07
2018-07-19T22:29:12.787Z,13.37
2018-07-19T22:31:41.348Z,22.23
2018-07-19T22:34:09.878Z,13.73
2018-07-19T22:42:23.685Z,17.40
2018-07-19T22:44:52.154Z,12.70
2018-07-19T22:47:20.684Z,20.88
2018-07-19T22:49:49.532Z,11.50
2018-07-19T22:52:18.061Z,23.10
2018-07-19T22:54:46.607Z,12.10
2018-07-19T23:16:58.537Z,10.38
2018-07-19T23:19:27.110Z,12.45
2018-07-19T23:21:57.159Z,14.30
2018-07-19T23:24:25.753Z,15.85
2018-07-19T23:26:54.394Z,15.57
2018-07-19T23:29:22.949Z,14.97
2018-07-19T23:31:51.538Z,11.73
2018-07-19T23:34:20.964Z,13.20
2018-07-19T23:37:01.346Z,12.35
2018-07-19T23:39:33.989Z,16.33
2018-07-19T23:42:08.018Z,14.47
2018-07-19T23:44:42.660Z,22.23
2018-07-19T23:47:14.603Z,16.10
2018-07-19T23:49:43.244Z,15.43
2018-07-19T23:52:12.601Z,16.47
2018-07-19T23:54:41.511Z,12.47
2018-07-19T23:57:10.417Z,13.60
2018-07-19T23:59:39.058Z,17.73
